Time;durP1;ratioP1;P1;durP2;ratioP2;P2;SDS_P1;SDS_P2;PMS_P1;PMS_P2;Temp;Humidity;BMP_temperature;BMP_pressure;BME280_temperature;BME280_humidity;BME280_pressure;Samples;Min_cycle;Max_cycle;Signal;HPM_P1;HPM_P2
2022/06/15 00:00:16;;;;;;;4.33;3.93;;;16.90;97.40;;;;;;5013390;28;20177;-95
2022/06/15 00:02:43;;;;;;;4.00;3.60;;;16.90;97.50;;;;;;5029700;28;20162;-96
2022/06/15 00:05:09;;;;;;;3.93;3.53;;;17.00;97.60;;;;;;5010539;28;20244;-89
2022/06/15 00:07:34;;;;;;;4.37;4.03;;;16.90;97.50;;;;;;5020259;28;20184;-96
2022/06/15 00:10:00;;;;;;;4.40;3.53;;;17.00;97.60;;;;;;5036125;28;20180;-97
2022/06/15 00:12:26;;;;;;;4.30;3.83;;;17.10;97.50;;;;;;5021143;28;20248;-94
2022/06/15 00:14:55;;;;;;;5.07;3.53;;;17.10;97.30;;;;;;5013283;28;20178;-90
2022/06/15 00:17:21;;;;;;;3.90;3.60;;;17.00;97.30;;;;;;5017601;28;20173;-93
2022/06/15 00:19:47;;;;;;;4.20;3.90;;;17.00;97.40;;;;;;5012486;28;20232;-94
2022/06/15 00:22:14;;;;;;;3.87;3.57;;;17.00;97.40;;;;;;5011306;28;20648;-94
2022/06/15 00:24:40;;;;;;;4.33;3.93;;;16.90;97.40;;;;;;5030107;28;20185;-90
2022/06/15 00:27:05;;;;;;;6.20;4.00;;;16.90;97.40;;;;;;5001206;28;20181;-93
2022/06/15 00:29:33;;;;;;;4.93;3.53;;;16.80;97.50;;;;;;5007484;23;20242;-89
2022/06/15 00:31:59;;;;;;;6.57;3.97;;;16.90;97.60;;;;;;5012441;23;20216;-89
2022/06/15 00:34:25;;;;;;;6.73;3.80;;;16.90;97.50;;;;;;5003815;28;20184;-90
2022/06/15 00:36:51;;;;;;;4.13;3.80;;;16.80;97.80;;;;;;4997042;28;20196;-95
2022/06/15 00:39:16;;;;;;;5.23;4.27;;;16.80;97.80;;;;;;4991283;28;20227;-93
2022/06/15 00:41:42;;;;;;;4.60;4.03;;;16.70;97.90;;;;;;4996233;28;20236;-91
2022/06/15 00:44:46;;;;;;;5.30;3.70;;;16.70;97.90;;;;;;5014973;28;20196;-88
2022/06/15 00:47:22;;;;;;;3.77;3.47;;;16.70;98.00;;;;;;5111961;23;20303;-91
2022/06/15 00:49:59;;;;;;;7.43;4.20;;;16.70;98.30;;;;;;5014484;28;20178;-94
2022/06/15 00:52:34;;;;;;;4.73;3.50;;;16.60;98.10;;;;;;5029756;28;20167;-95
2022/06/15 00:55:30;;;;;;;4.50;4.10;;;16.60;98.30;;;;;;5022155;28;20236;-91
2022/06/15 00:57:57;;;;;;;5.70;4.20;;;16.50;98.40;;;;;;5037417;28;20189;-94
2022/06/15 01:00:56;;;;;;;7.07;4.10;;;16.50;98.50;;;;;;5035529;28;20181;-90
2022/06/15 01:03:33;;;;;;;4.93;4.30;;;16.50;98.50;;;;;;5015006;28;20193;-91
2022/06/15 01:06:10;;;;;;;5.57;4.30;;;16.50;98.60;;;;;;5028802;23;20224;-92
2022/06/15 01:08:50;;;;;;;3.80;3.50;;;16.40;98.60;;;;;;5021960;28;20191;-88
2022/06/15 01:11:24;;;;;;;4.30;4.00;;;16.40;98.80;;;;;;5092153;23;20289;-95
2022/06/15 01:14:15;;;;;;;4.50;4.07;;;16.30;99.00;;;;;;5000189;28;20207;-92
2022/06/15 01:16:55;;;;;;;4.33;3.90;;;16.20;99.00;;;;;;5001206;28;20178;-92
2022/06/15 01:19:36;;;;;;;5.30;4.17;;;16.20;99.10;;;;;;5008554;28;20248;-89
2022/06/15 01:22:21;;;;;;;7.00;4.50;;;16.20;99.20;;;;;;5007245;28;20227;-94
2022/06/15 01:25:35;;;;;;;6.60;3.83;;;16.20;99.20;;;;;;5003532;28;20282;-94
2022/06/15 01:28:31;;;;;;;4.53;4.17;;;16.20;99.30;;;;;;4954277;28;20197;-95
2022/06/15 01:31:00;;;;;;;7.83;4.60;;;16.20;99.20;;;;;;5006635;28;20177;-89
2022/06/15 01:33:48;;;;;;;5.67;4.23;;;16.20;99.20;;;;;;5007480;28;20176;-92
2022/06/15 01:36:55;;;;;;;8.33;4.27;;;16.20;99.30;;;;;;5002661;28;20200;-94
2022/06/15 01:39:56;;;;;;;5.17;3.93;;;16.20;99.40;;;;;;5003863;28;20263;-88
2022/06/15 01:42:54;;;;;;;5.50;4.33;;;16.20;99.60;;;;;;5011781;28;20180;-96
2022/06/15 01:45:26;;;;;;;5.83;4.33;;;16.30;99.30;;;;;;5013592;28;20168;-96
2022/06/15 01:48:00;;;;;;;5.30;4.20;;;16.20;99.40;;;;;;5013278;28;20164;-96
2022/06/15 01:50:52;;;;;;;4.30;3.97;;;16.10;99.50;;;;;;5015317;28;20189;-96
2022/06/15 01:53:40;;;;;;;5.27;4.20;;;16.20;99.50;;;;;;4996582;28;20216;-89
2022/06/15 01:56:17;;;;;;;8.07;4.20;;;16.20;99.60;;;;;;5009680;28;20166;-96
2022/06/15 01:58:49;;;;;;;5.23;4.07;;;16.20;99.50;;;;;;5017133;28;20199;-93
2022/06/15 02:01:26;;;;;;;4.17;3.87;;;16.10;99.50;;;;;;5016425;28;20168;-96
2022/06/15 02:03:55;;;;;;;4.87;4.33;;;16.10;99.60;;;;;;4999129;28;20557;-93
2022/06/15 02:06:47;;;;;;;3.97;3.67;;;16.00;99.80;;;;;;5005709;28;20171;-88
2022/06/15 02:09:22;;;;;;;4.40;4.00;;;16.00;99.80;;;;;;5002719;28;20577;-91
2022/06/15 02:11:48;;;;;;;6.50;4.30;;;16.00;99.80;;;;;;5006385;28;20309;-89
2022/06/15 02:14:46;;;;;;;4.90;4.10;;;16.10;99.80;;;;;;5018444;28;20174;-90
2022/06/15 02:17:43;;;;;;;4.57;3.80;;;16.10;99.70;;;;;;5002040;28;20217;-90
2022/06/15 02:20:16;;;;;;;4.37;3.97;;;16.20;99.70;;;;;;5000895;28;20200;-90
2022/06/15 02:22:43;;;;;;;5.50;4.20;;;16.10;99.70;;;;;;4999489;28;20582;-91
2022/06/15 02:25:15;;;;;;;4.60;4.20;;;16.00;99.80;;;;;;5000853;28;20190;-89
2022/06/15 02:27:42;;;;;;;4.77;3.87;;;16.00;99.90;;;;;;5000862;28;20545;-94
2022/06/15 02:30:14;;;;;;;5.73;4.50;;;16.00;99.90;;;;;;4998850;28;20180;-91
2022/06/15 02:32:45;;;;;;;6.00;3.97;;;16.00;99.90;;;;;;4998681;28;20172;-91
2022/06/15 02:35:10;;;;;;;8.17;4.43;;;16.00;99.90;;;;;;4999706;28;20182;-95
2022/06/15 02:37:36;;;;;;;7.07;4.87;;;15.90;99.90;;;;;;4998633;28;20261;-93
2022/06/15 02:40:05;;;;;;;5.23;3.93;;;15.90;99.90;;;;;;4999775;28;20554;-92
2022/06/15 02:42:35;;;;;;;4.80;4.40;;;15.90;99.90;;;;;;5001255;28;20262;-89
2022/06/15 02:45:08;;;;;;;5.50;4.47;;;15.80;99.90;;;;;;4985625;28;20186;-94
2022/06/15 02:47:38;;;;;;;6.30;4.03;;;15.70;99.90;;;;;;5004806;28;20550;-94
2022/06/15 02:50:20;;;;;;;7.30;4.80;;;15.70;99.90;;;;;;5005974;28;20197;-89
2022/06/15 02:53:12;;;;;;;4.67;4.27;;;15.70;99.90;;;;;;5001787;28;20155;-93
2022/06/15 02:55:45;;;;;;;8.17;4.03;;;15.70;99.90;;;;;;5012177;28;20205;-88
2022/06/15 02:58:25;;;;;;;4.73;4.33;;;15.80;99.90;;;;;;5019910;28;20201;-92
2022/06/15 03:00:51;;;;;;;4.43;3.93;;;15.70;99.90;;;;;;5015016;28;20198;-88
2022/06/15 03:03:17;;;;;;;4.93;4.03;;;15.70;99.90;;;;;;5008432;28;20175;-89
2022/06/15 03:05:47;;;;;;;7.87;4.73;;;15.80;99.90;;;;;;5000674;28;20217;-89
2022/06/15 03:08:14;;;;;;;6.63;4.50;;;15.90;99.90;;;;;;5003053;28;20193;-89
2022/06/15 03:10:40;;;;;;;5.60;4.37;;;15.80;99.90;;;;;;5003405;28;20647;-88
2022/06/15 03:13:12;;;;;;;9.43;4.10;;;15.80;99.90;;;;;;5002450;28;20210;-87
2022/06/15 03:15:39;;;;;;;5.13;4.27;;;15.70;99.90;;;;;;4984803;28;20593;-87
2022/06/15 03:18:05;;;;;;;7.07;4.47;;;15.60;99.90;;;;;;5005194;28;20178;-88
2022/06/15 03:20:31;;;;;;;4.43;4.03;;;15.60;99.90;;;;;;4999451;28;20176;-96
2022/06/15 03:22:57;;;;;;;6.37;4.50;;;15.60;99.90;;;;;;5001333;28;20180;-95
2022/06/15 03:25:24;;;;;;;7.70;4.97;;;15.60;99.90;;;;;;5009007;28;20165;-93
2022/06/15 03:27:52;;;;;;;5.00;4.20;;;15.70;99.90;;;;;;5008470;28;20187;-94
2022/06/15 03:30:18;;;;;;;6.93;4.53;;;15.70;99.90;;;;;;5003813;28;20230;-96
2022/06/15 03:32:46;;;;;;;5.07;4.37;;;15.60;99.90;;;;;;5012336;28;20174;-96
2022/06/15 03:35:13;;;;;;;7.23;4.33;;;15.70;99.90;;;;;;5005741;28;20721;-96
2022/06/15 03:37:39;;;;;;;5.80;4.50;;;15.70;99.90;;;;;;5002728;28;20635;-94
2022/06/15 03:40:10;;;;;;;5.40;3.73;;;15.70;99.90;;;;;;5010580;28;20205;-96
2022/06/15 03:42:57;;;;;;;8.17;4.73;;;15.70;99.90;;;;;;5015030;28;20223;-89
2022/06/15 03:45:23;;;;;;;5.30;4.50;;;15.70;99.90;;;;;;5006275;28;20183;-96
2022/06/15 03:47:55;;;;;;;5.10;4.40;;;15.70;99.90;;;;;;5004712;28;20249;-96
2022/06/15 03:50:40;;;;;;;6.00;4.47;;;15.70;99.90;;;;;;5010118;28;20245;-90
2022/06/15 03:53:07;;;;;;;10.93;4.80;;;15.70;99.90;;;;;;4998593;28;20183;-92
2022/06/15 03:55:33;;;;;;;9.97;4.90;;;15.80;99.90;;;;;;5001879;28;20274;-93
2022/06/15 03:57:59;;;;;;;6.13;4.63;;;15.90;99.90;;;;;;5005532;28;20167;-94
2022/06/15 04:00:28;;;;;;;6.37;4.70;;;15.80;99.90;;;;;;5004064;28;20184;-93
2022/06/15 04:02:55;;;;;;;8.07;4.37;;;15.90;99.90;;;;;;5005916;28;20164;-94
2022/06/15 04:05:25;;;;;;;5.50;4.63;;;15.90;99.90;;;;;;5007011;28;20262;-93
2022/06/15 04:10:36;;;;;;;6.93;4.90;;;16.00;99.90;;;;;;5010757;28;20165;-95
2022/06/15 04:13:03;;;;;;;7.10;4.70;;;16.00;99.90;;;;;;5004796;28;20206;-92
2022/06/15 04:15:29;;;;;;;6.50;4.67;;;16.10;99.90;;;;;;4985457;28;20235;-91
2022/06/15 04:17:54;;;;;;;7.67;4.97;;;16.00;99.90;;;;;;5006146;28;20176;-96
2022/06/15 04:20:32;;;;;;;9.07;4.60;;;16.00;99.90;;;;;;5005794;28;20205;-94
2022/06/15 04:23:03;;;;;;;7.20;5.63;;;16.20;99.90;;;;;;5003587;28;20515;-96
2022/06/15 04:25:30;;;;;;;9.87;5.57;;;16.20;99.90;;;;;;5011889;28;20224;-96
2022/06/15 04:27:57;;;;;;;4.73;4.30;;;16.30;99.90;;;;;;5001342;28;20183;-93
2022/06/15 04:30:43;;;;;;;7.40;4.67;;;16.30;99.90;;;;;;5011291;28;20194;-88
2022/06/15 04:33:33;;;;;;;5.83;4.37;;;16.30;99.90;;;;;;4997937;28;20187;-89
2022/06/15 04:36:00;;;;;;;6.77;4.80;;;16.40;99.90;;;;;;5015723;28;20168;-91
2022/06/15 04:40:57;;;;;;;5.10;4.70;;;16.40;99.90;;;;;;5012438;28;20253;-92
2022/06/15 04:43:24;;;;;;;6.97;4.60;;;16.50;99.90;;;;;;4997755;28;20189;-87
2022/06/15 04:45:57;;;;;;;7.77;5.63;;;16.60;99.90;;;;;;5018461;28;20173;-88
2022/06/15 04:48:27;;;;;;;6.10;5.37;;;16.60;99.90;;;;;;4998729;28;20274;-96
2022/06/15 04:50:54;;;;;;;8.20;5.43;;;16.60;99.90;;;;;;5066136;23;20241;-95
2022/06/15 04:53:22;;;;;;;10.67;5.30;;;16.70;99.90;;;;;;5012023;28;20184;-91
2022/06/15 04:56:03;;;;;;;7.03;5.13;;;16.70;99.90;;;;;;4990633;28;20200;-88
2022/06/15 04:58:28;;;;;;;11.17;6.03;;;16.70;99.90;;;;;;5016702;28;20216;-89
2022/06/15 05:00:54;;;;;;;8.80;5.50;;;16.70;99.90;;;;;;5004535;28;20185;-88
2022/06/15 05:03:23;;;;;;;8.60;5.67;;;16.80;99.90;;;;;;5016094;28;20196;-93
2022/06/15 05:05:54;;;;;;;7.30;5.10;;;16.90;99.90;;;;;;4975419;28;20193;-91
2022/06/15 05:08:21;;;;;;;7.67;5.20;;;17.20;99.70;;;;;;4997830;28;20166;-88
2022/06/15 05:10:47;;;;;;;10.27;5.33;;;17.30;99.60;;;;;;5014943;28;20181;-87
2022/06/15 05:13:14;;;;;;;8.10;6.00;;;17.40;99.30;;;;;;4999304;28;20201;-88
2022/06/15 05:15:40;;;;;;;9.97;5.43;;;17.50;98.80;;;;;;5010240;28;20174;-93
2022/06/15 05:18:07;;;;;;;10.40;5.30;;;17.60;98.40;;;;;;5011633;28;20180;-88
2022/06/15 05:20:44;;;;;;;6.70;5.30;;;17.60;98.50;;;;;;4997512;28;20174;-88
2022/06/15 05:23:14;;;;;;;8.90;5.50;;;17.60;98.80;;;;;;5012037;28;20166;-93
2022/06/15 05:25:40;;;;;;;8.07;5.20;;;17.70;98.00;;;;;;4996566;28;20190;-94
2022/06/15 05:28:08;;;;;;;7.43;4.73;;;17.80;98.00;;;;;;5005231;28;20188;-92
2022/06/15 05:30:34;;;;;;;10.60;4.97;;;17.90;98.00;;;;;;4999066;28;20227;-91
2022/06/15 05:33:00;;;;;;;12.20;5.33;;;18.00;97.80;;;;;;4993064;28;20274;-94
2022/06/15 05:35:27;;;;;;;6.77;5.13;;;18.00;97.80;;;;;;4998494;28;20183;-90
2022/06/15 05:37:54;;;;;;;8.40;4.80;;;18.10;98.00;;;;;;4991503;28;20165;-90
2022/06/15 05:40:20;;;;;;;7.47;5.00;;;18.20;98.00;;;;;;5012777;28;20221;-90
2022/06/15 05:42:45;;;;;;;8.47;6.70;;;18.30;97.70;;;;;;4980761;28;20176;-96
2022/06/15 05:45:13;;;;;;;11.50;5.17;;;18.40;97.30;;;;;;5017738;28;20205;-90
2022/06/15 05:47:39;;;;;;;9.10;4.93;;;18.40;97.70;;;;;;5073426;23;20227;-92
2022/06/15 05:50:07;;;;;;;9.17;5.53;;;18.50;96.80;;;;;;5026973;28;20203;-92
2022/06/15 05:52:32;;;;;;;7.50;5.00;;;18.60;96.50;;;;;;5004809;28;20180;-93
2022/06/15 05:55:00;;;;;;;7.83;4.47;;;18.60;96.20;;;;;;5003034;28;20272;-96
2022/06/15 05:57:26;;;;;;;6.73;4.23;;;18.70;96.00;;;;;;4999646;28;20203;-91
2022/06/15 05:59:59;;;;;;;6.63;4.77;;;18.80;96.10;;;;;;5024780;28;20246;-90
2022/06/15 06:02:27;;;;;;;5.73;4.10;;;18.80;96.30;;;;;;5011455;28;20178;-87
2022/06/15 06:04:53;;;;;;;7.33;3.90;;;18.90;96.30;;;;;;5011060;28;20185;-87
2022/06/15 06:07:20;;;;;;;6.83;3.87;;;19.00;95.80;;;;;;5006872;28;20196;-89
2022/06/15 06:09:46;;;;;;;5.77;3.90;;;19.00;95.30;;;;;;5008224;28;20183;-91
2022/06/15 06:12:12;;;;;;;7.50;4.70;;;19.10;95.60;;;;;;5007517;28;20177;-89
2022/06/15 06:14:38;;;;;;;7.10;3.93;;;19.20;95.10;;;;;;5026380;28;20212;-90
2022/06/15 06:17:05;;;;;;;7.00;4.13;;;19.40;94.90;;;;;;5007272;28;20174;-90
2022/06/15 06:19:31;;;;;;;5.50;4.07;;;19.40;95.00;;;;;;5007013;28;20696;-95
2022/06/15 06:21:56;;;;;;;3.97;3.30;;;19.40;94.90;;;;;;5007029;28;20188;-96
2022/06/15 06:24:22;;;;;;;4.23;3.40;;;19.50;94.30;;;;;;5005311;28;20185;-92
2022/06/15 06:26:48;;;;;;;4.23;3.57;;;19.60;94.80;;;;;;5009998;28;20271;-91
2022/06/15 06:29:16;;;;;;;5.43;3.77;;;19.70;94.70;;;;;;4988462;28;20189;-91
2022/06/15 06:31:44;;;;;;;5.43;3.80;;;19.70;93.90;;;;;;5003931;28;20180;-89
2022/06/15 06:34:11;;;;;;;6.53;3.80;;;19.80;94.00;;;;;;5025879;28;20185;-93
2022/06/15 06:36:41;;;;;;;4.80;4.13;;;19.70;94.10;;;;;;5036061;28;20196;-88
2022/06/15 06:39:13;;;;;;;7.03;3.50;;;19.90;94.00;;;;;;5016568;28;20201;-88
2022/06/15 06:41:40;;;;;;;4.13;3.70;;;19.90;94.00;;;;;;5017380;28;20169;-89
2022/06/15 06:44:06;;;;;;;5.33;3.77;;;20.00;93.90;;;;;;5011028;28;20177;-91
2022/06/15 06:46:34;;;;;;;3.80;3.17;;;19.90;93.80;;;;;;5006195;28;20212;-89
2022/06/15 06:49:07;;;;;;;5.17;4.40;;;20.00;93.90;;;;;;5010202;28;20535;-90
2022/06/15 06:51:36;;;;;;;7.07;4.27;;;20.00;94.30;;;;;;5028171;28;20185;-89
2022/06/15 06:54:05;;;;;;;8.20;5.93;;;20.20;94.10;;;;;;5026307;28;20185;-88
2022/06/15 06:56:34;;;;;;;4.93;3.70;;;20.40;94.10;;;;;;5031468;23;20237;-89
2022/06/15 06:59:00;;;;;;;3.60;3.30;;;20.30;93.10;;;;;;4988003;28;20252;-89
2022/06/15 07:01:26;;;;;;;3.60;3.30;;;20.40;92.80;;;;;;5012888;28;20158;-89
2022/06/15 07:03:52;;;;;;;5.03;3.77;;;20.40;92.70;;;;;;5034215;28;20181;-89
2022/06/15 07:06:18;;;;;;;7.30;3.67;;;20.40;92.70;;;;;;5010351;28;20221;-89
2022/06/15 07:08:44;;;;;;;5.67;3.17;;;20.40;92.90;;;;;;5007054;28;20185;-89
2022/06/15 07:11:17;;;;;;;4.00;3.53;;;20.50;93.00;;;;;;5019704;28;20523;-90
2022/06/15 07:13:51;;;;;;;3.60;3.30;;;20.70;93.10;;;;;;5007084;28;20166;-89
2022/06/15 07:16:32;;;;;;;3.27;2.97;;;20.80;93.40;;;;;;5008501;28;20542;-88
2022/06/15 07:18:59;;;;;;;3.57;3.27;;;20.60;92.60;;;;;;5010770;28;20281;-89
2022/06/15 07:21:26;;;;;;;4.00;3.60;;;20.60;92.80;;;;;;5016630;28;20189;-88
2022/06/15 07:23:55;;;;;;;3.50;3.20;;;20.70;92.80;;;;;;5013694;28;20221;-89
2022/06/15 07:26:32;;;;;;;4.93;3.27;;;20.80;92.70;;;;;;5042479;22;20239;-89
2022/06/15 07:28:58;;;;;;;3.40;3.10;;;20.90;92.70;;;;;;5032357;28;20215;-90
2022/06/15 07:31:36;;;;;;;4.00;3.00;;;21.00;92.20;;;;;;5024208;23;20216;-89
2022/06/15 07:34:08;;;;;;;5.03;2.90;;;20.90;92.50;;;;;;5004102;28;20189;-88
2022/06/15 07:36:39;;;;;;;5.53;3.17;;;21.00;92.70;;;;;;5019977;28;20149;-88
2022/06/15 07:39:30;;;;;;;3.70;3.17;;;21.10;92.50;;;;;;5035513;28;20213;-88
2022/06/15 07:42:21;;;;;;;4.73;3.30;;;21.10;92.00;;;;;;5020979;28;20163;-88
2022/06/15 07:44:50;;;;;;;4.97;3.40;;;21.20;91.80;;;;;;4992912;28;20220;-88
2022/06/15 07:50:00;;;;;;;7.43;3.13;;;21.40;92.40;;;;;;5020085;28;20238;-88
2022/06/15 07:52:34;;;;;;;3.67;3.30;;;21.50;91.90;;;;;;5079954;23;20298;-88
2022/06/15 07:55:00;;;;;;;3.20;3.00;;;21.60;91.90;;;;;;5023907;28;20166;-88
2022/06/15 07:57:26;;;;;;;3.27;2.97;;;21.60;91.80;;;;;;5006492;28;20211;-88
2022/06/15 07:59:57;;;;;;;3.23;2.97;;;21.60;91.70;;;;;;5006827;28;20219;-88
2022/06/15 08:02:25;;;;;;;4.37;3.23;;;21.70;91.10;;;;;;5023995;28;20166;-88
2022/06/15 08:04:56;;;;;;;3.67;3.00;;;21.80;91.00;;;;;;5002349;28;20280;-88
2022/06/15 08:07:24;;;;;;;3.13;2.93;;;21.90;91.20;;;;;;5019580;28;20166;-89
2022/06/15 08:09:50;;;;;;;5.93;3.00;;;21.90;91.40;;;;;;5019776;23;20248;-88
2022/06/15 08:12:19;;;;;;;4.13;3.27;;;21.90;91.20;;;;;;5021954;28;20687;-89
2022/06/15 08:15:01;;;;;;;3.70;3.23;;;22.00;91.70;;;;;;5021854;28;20524;-90
2022/06/15 08:17:41;;;;;;;4.73;3.40;;;22.00;92.10;;;;;;5022187;23;20173;-87
2022/06/15 08:20:10;;;;;;;3.60;3.30;;;22.10;91.80;;;;;;5001236;28;20213;-90
2022/06/15 08:22:40;;;;;;;4.43;3.40;;;22.20;91.60;;;;;;4988070;28;20205;-88
2022/06/15 08:25:07;;;;;;;4.83;3.20;;;22.30;91.30;;;;;;5091773;23;20258;-88
2022/06/15 08:27:34;;;;;;;5.23;3.30;;;22.40;91.70;;;;;;4995250;28;20187;-88
2022/06/15 08:30:01;;;;;;;5.57;3.20;;;22.30;91.70;;;;;;4995014;28;20217;-88
2022/06/15 08:32:27;;;;;;;5.80;3.40;;;22.40;91.90;;;;;;4987734;28;20177;-88
2022/06/15 08:34:52;;;;;;;3.67;3.23;;;22.40;91.90;;;;;;4989636;28;20190;-88
2022/06/15 08:37:19;;;;;;;4.73;3.00;;;22.50;91.00;;;;;;5051332;23;20232;-88
2022/06/15 08:39:45;;;;;;;3.67;3.03;;;22.50;91.00;;;;;;5013077;28;20229;-89
2022/06/15 08:42:39;;;;;;;4.00;3.10;;;22.50;91.20;;;;;;5036725;23;20244;-88
2022/06/15 08:45:17;;;;;;;5.47;3.40;;;22.60;92.10;;;;;;5034232;28;20180;-89
2022/06/15 08:48:09;;;;;;;6.07;3.15;;;22.80;92.00;;;;;;5012801;28;20181;-88
2022/06/15 08:50:42;;;;;;;6.32;3.17;;;22.90;91.60;;;;;;5094107;23;20252;-89
2022/06/15 08:53:26;;;;;;;3.53;3.20;;;23.00;91.50;;;;;;5018972;28;20185;-89
2022/06/15 08:56:13;;;;;;;4.90;3.53;;;23.00;90.50;;;;;;5016082;28;20165;-88
2022/06/15 08:58:39;;;;;;;3.72;3.40;;;23.00;90.20;;;;;;5035856;28;20185;-89
2022/06/15 09:01:14;;;;;;;4.10;3.37;;;22.90;90.30;;;;;;5017577;28;20192;-92
2022/06/15 09:03:54;;;;;;;4.60;3.60;;;22.70;90.20;;;;;;5023845;28;20161;-89
2022/06/15 09:06:53;;;;;;;3.73;3.37;;;22.60;91.10;;;;;;5041421;28;20160;-89
2022/06/15 09:09:52;;;;;;;7.83;3.23;;;22.60;91.70;;;;;;4958256;29;20195;-89
2022/06/15 09:15:20;;;;;;;7.77;4.40;;;22.90;91.60;;;;;;5035760;28;20217;-89
2022/06/15 09:17:49;;;;;;;3.70;3.40;;;23.10;91.10;;;;;;5010270;28;20182;-89
2022/06/15 09:20:29;;;;;;;3.40;3.13;;;23.20;91.10;;;;;;5019466;28;20209;-89
2022/06/15 09:23:10;;;;;;;6.20;3.35;;;23.10;92.10;;;;;;5018857;28;20181;-89
2022/06/15 09:26:21;;;;;;;4.18;3.70;;;23.30;91.70;;;;;;5017225;28;20189;-89
2022/06/15 09:28:54;;;;;;;5.65;3.28;;;23.30;90.90;;;;;;5012403;28;20261;-88
2022/06/15 09:36:29;;;;;;;7.82;3.58;;;23.30;92.30;;;;;;4312169;26;20223;-89
2022/06/15 09:38:55;;;;;;;6.38;3.47;;;23.30;91.20;;;;;;5020306;28;20200;-89
2022/06/15 09:41:27;;;;;;;7.32;3.65;;;23.30;91.40;;;;;;5031247;28;20186;-89
2022/06/15 09:44:12;;;;;;;6.50;3.30;;;23.30;92.30;;;;;;5033779;28;20184;-89
2022/06/15 09:47:04;;;;;;;7.68;4.25;;;23.50;92.30;;;;;;5030424;28;20165;-88
2022/06/15 09:49:35;;;;;;;6.57;4.30;;;23.60;92.10;;;;;;4982649;28;20181;-88
2022/06/15 09:52:09;;;;;;;5.40;4.90;;;23.80;91.50;;;;;;5014963;28;20165;-88
2022/06/15 09:55:07;;;;;;;6.85;4.65;;;23.80;91.80;;;;;;5024725;22;20153;-88
2022/06/15 09:57:36;;;;;;;4.60;4.13;;;23.80;92.00;;;;;;5015572;23;20241;-93
2022/06/15 10:00:05;;;;;;;8.10;3.88;;;23.80;91.70;;;;;;5017834;28;20221;-88
2022/06/15 10:02:34;;;;;;;5.25;3.20;;;23.80;91.00;;;;;;5025689;23;20228;-88
2022/06/15 10:05:05;;;;;;;6.05;3.50;;;23.80;90.70;;;;;;5018825;28;20176;-93
2022/06/15 10:16:25;;;;;;;4.90;3.47;;;23.80;91.70;;;;;;4960265;26;20221;-88
2022/06/15 10:18:54;;;;;;;3.58;3.28;;;23.90;91.70;;;;;;5036789;28;20217;-89
2022/06/15 10:24:24;;;;;;;4.55;4.25;;;24.10;91.70;;;;;;4166986;26;20247;-89
2022/06/15 10:29:55;;;;;;;3.75;3.42;;;24.20;91.60;;;;;;5278121;23;20255;-88
2022/06/15 10:32:24;;;;;;;8.27;3.92;;;24.20;91.40;;;;;;5018753;28;20185;-87
2022/06/15 10:37:53;;;;;;;4.90;3.47;;;24.30;91.50;;;;;;3375420;23;20236;-88
2022/06/15 10:40:31;;;;;;;4.55;3.30;;;24.30;92.10;;;;;;5018042;28;20201;-91
2022/06/15 10:43:06;;;;;;;3.20;3.00;;;24.40;91.10;;;;;;5017953;28;20248;-87
2022/06/15 10:45:44;;;;;;;6.57;3.55;;;24.50;90.30;;;;;;5011923;23;20236;-89
2022/06/15 10:48:42;;;;;;;4.40;3.33;;;24.40;90.80;;;;;;5016685;28;20178;-87
2022/06/15 10:51:14;;;;;;;4.35;3.05;;;24.40;91.60;;;;;;5013269;28;20166;-88
2022/06/15 10:53:43;;;;;;;6.68;3.85;;;24.50;91.50;;;;;;5004205;23;20251;-88
2022/06/15 11:02:14;;;;;;;5.88;3.65;;;24.60;91.30;;;;;;5087011;23;20224;-88
2022/06/15 11:04:46;;;;;;;5.88;4.03;;;24.70;91.70;;;;;;5021726;28;20204;-89
2022/06/15 11:07:21;;;;;;;4.07;3.78;;;24.80;91.50;;;;;;5128997;22;20248;-88
2022/06/15 11:09:56;;;;;;;3.72;3.22;;;24.80;92.00;;;;;;5047910;23;20249;-88
2022/06/15 11:12:25;;;;;;;3.58;3.28;;;24.80;90.70;;;;;;5018663;28;20186;-88
2022/06/15 11:15:12;;;;;;;3.10;2.90;;;24.90;91.10;;;;;;5017282;28;20182;-88
2022/06/15 11:18:06;;;;;;;4.20;3.40;;;24.80;90.80;;;;;;5025395;28;20166;-92
2022/06/15 11:20:52;;;;;;;5.72;3.17;;;24.90;91.30;;;;;;5128956;23;20229;-88
2022/06/15 11:23:31;;;;;;;3.60;3.30;;;25.00;91.70;;;;;;5016941;28;20180;-89
2022/06/15 11:26:57;;;;;;;4.90;3.22;;;25.00;91.70;;;;;;5014794;28;20176;-88
2022/06/15 11:29:59;;;;;;;6.22;3.55;;;25.20;90.80;;;;;;5017609;28;20185;-88
2022/06/15 11:32:41;;;;;;;4.38;3.63;;;25.20;91.30;;;;;;5016400;28;20165;-88
2022/06/15 11:35:13;;;;;;;4.22;3.35;;;25.20;91.10;;;;;;5029431;28;20191;-88
2022/06/15 11:37:57;;;;;;;6.57;3.25;;;25.20;91.10;;;;;;5008357;28;20269;-88
2022/06/15 11:40:35;;;;;;;3.80;3.50;;;25.20;91.00;;;;;;5007251;28;20272;-87
2022/06/15 11:43:03;;;;;;;4.10;3.80;;;25.20;90.80;;;;;;5006947;28;20161;-88
2022/06/15 11:46:04;;;;;;;3.80;3.30;;;25.20;91.70;;;;;;5024312;28;20170;-87
2022/06/15 11:49:09;;;;;;;4.88;3.38;;;25.20;91.00;;;;;;4984539;28;20182;-91
2022/06/15 11:51:51;;;;;;;3.95;3.45;;;25.30;90.90;;;;;;5101343;23;20268;-89
2022/06/15 11:54:25;;;;;;;3.83;3.50;;;25.30;90.80;;;;;;5008660;28;20195;-88
2022/06/15 11:57:18;;;;;;;3.83;3.53;;;25.50;90.60;;;;;;5024935;28;20161;-88
2022/06/15 12:00:41;;;;;;;4.53;3.88;;;25.50;90.10;;;;;;5014306;23;20295;-88
2022/06/15 12:03:31;;;;;;;4.10;3.70;;;25.40;90.80;;;;;;5162987;23;20267;-88
2022/06/15 12:06:06;;;;;;;3.50;3.20;;;25.40;90.40;;;;;;5018839;28;20177;-88
2022/06/15 12:08:45;;;;;;;6.70;6.03;;;25.40;90.20;;;;;;5038873;23;20256;-92
2022/06/15 12:15:08;;;;;;;4.80;3.50;;;25.60;90.80;;;;;;4995532;28;20170;-87
2022/06/15 12:17:46;;;;;;;4.97;3.40;;;25.60;90.80;;;;;;4997569;28;20179;-89
2022/06/15 12:20:45;;;;;;;4.35;3.47;;;25.70;90.70;;;;;;5008017;23;20297;-95
2022/06/15 12:23:33;;;;;;;4.38;3.30;;;25.80;90.40;;;;;;5000927;28;20162;-88
2022/06/15 12:26:05;;;;;;;5.72;3.70;;;25.90;91.20;;;;;;5016817;28;20158;-89
2022/06/15 12:28:45;;;;;;;4.30;3.83;;;26.00;90.20;;;;;;5005397;28;20177;-88
2022/06/15 12:31:30;;;;;;;4.15;3.60;;;25.90;90.20;;;;;;5003050;28;20173;-88
2022/06/15 12:34:36;;;;;;;4.10;3.70;;;26.00;90.40;;;;;;5003773;23;20210;-88
2022/06/15 12:37:34;;;;;;;3.88;3.50;;;26.00;90.90;;;;;;5013831;28;20210;-89
2022/06/15 12:40:33;;;;;;;3.90;3.60;;;26.00;90.30;;;;;;5001652;28;20222;-89
2022/06/15 12:43:53;;;;;;;4.50;3.83;;;25.80;90.40;;;;;;4983877;28;20224;-90
2022/06/15 12:46:23;;;;;;;3.85;3.55;;;25.80;90.80;;;;;;5016716;28;20205;-89
2022/06/15 12:49:08;;;;;;;3.92;3.58;;;25.80;90.50;;;;;;4999947;28;20258;-89
2022/06/15 12:52:00;;;;;;;4.15;3.75;;;25.80;90.50;;;;;;5070834;22;20218;-89
2022/06/15 12:54:53;;;;;;;4.07;3.22;;;25.80;90.70;;;;;;5010789;23;20205;-88
2022/06/15 12:57:27;;;;;;;6.47;3.58;;;25.90;90.10;;;;;;5042962;23;20251;-88
2022/06/15 13:00:01;;;;;;;4.10;3.70;;;26.00;90.40;;;;;;4991063;28;20249;-89
2022/06/15 13:02:40;;;;;;;7.95;3.60;;;26.10;90.50;;;;;;5014187;22;20232;-89
2022/06/15 13:05:25;;;;;;;5.53;4.00;;;26.10;90.40;;;;;;5010349;28;20184;-88
2022/06/15 13:08:34;;;;;;;4.72;4.05;;;26.10;90.70;;;;;;5021818;23;20224;-89
2022/06/15 13:11:24;;;;;;;7.00;3.88;;;26.20;90.60;;;;;;5091877;22;20233;-89
2022/06/15 13:14:16;;;;;;;3.75;3.55;;;26.20;90.30;;;;;;5016368;28;20191;-89
2022/06/15 13:16:55;;;;;;;6.30;3.65;;;26.30;90.50;;;;;;5092297;23;20215;-90
2022/06/15 13:19:42;;;;;;;4.38;3.85;;;26.10;90.20;;;;;;5048642;23;20218;-88
2022/06/15 13:22:14;;;;;;;5.32;3.58;;;26.00;90.30;;;;;;5059580;23;20269;-89
2022/06/15 13:25:05;;;;;;;4.90;4.30;;;26.10;90.40;;;;;;4989331;23;20265;-89
2022/06/15 13:28:00;;;;;;;4.28;3.97;;;26.10;90.10;;;;;;5018548;28;20263;-89
2022/06/15 13:30:47;;;;;;;4.45;4.05;;;26.20;89.60;;;;;;5037005;23;20227;-91
2022/06/15 13:33:14;;;;;;;4.05;3.70;;;26.00;90.10;;;;;;5018728;28;20414;-89
2022/06/15 13:36:07;;;;;;;4.15;3.70;;;26.00;90.30;;;;;;5057599;22;20261;-88
2022/06/15 13:41:01;;;;;;;4.32;3.95;;;25.90;91.10;;;;;;5032977;28;20233;-88
2022/06/15 13:43:42;;;;;;;4.72;3.97;;;25.90;90.70;;;;;;5163198;22;20276;-90
2022/06/15 13:46:42;;;;;;;3.63;3.13;;;25.80;90.20;;;;;;5033341;28;20188;-94
2022/06/15 13:49:22;;;;;;;4.63;4.30;;;25.90;90.50;;;;;;4968591;29;20192;-89
2022/06/15 13:51:57;;;;;;;6.05;4.03;;;25.90;89.80;;;;;;4958652;29;20171;-94
2022/06/15 13:54:38;;;;;;;5.55;3.78;;;26.00;90.10;;;;;;4962756;28;20159;-89
2022/06/15 13:57:40;;;;;;;3.90;3.70;;;26.00;90.20;;;;;;4977070;28;20227;-89
2022/06/15 14:00:33;;;;;;;4.05;3.75;;;26.10;90.00;;;;;;5041711;23;20240;-94
2022/06/15 14:03:24;;;;;;;5.50;3.47;;;26.20;90.10;;;;;;5022340;23;20239;-89
2022/06/15 14:06:29;;;;;;;4.10;3.80;;;26.40;90.10;;;;;;5016557;28;20184;-90
2022/06/15 14:09:34;;;;;;;3.90;3.50;;;26.50;88.80;;;;;;5110640;23;20240;-88
2022/06/15 14:12:12;;;;;;;3.40;3.20;;;26.50;88.90;;;;;;5018619;28;20181;-90
2022/06/15 14:14:44;;;;;;;3.78;3.47;;;26.70;88.70;;;;;;4999393;28;20193;-91